sensor_id;sensor_type;location;lat;lon;timestamp;P1;durP1;ratioP1;P2;durP2;ratioP2
52948;SDS011;38812;50.942;3.644;2023-10-19T00:00:08;7.38;;;0.70;;
52948;SDS011;38812;50.942;3.644;2023-10-19T00:02:49;5.45;;;0.85;;
52948;SDS011;38812;50.942;3.644;2023-10-19T00:05:18;2.20;;;0.63;;
52948;SDS011;38812;50.942;3.644;2023-10-19T00:07:45;5.65;;;0.80;;
52948;SDS011;38812;50.942;3.644;2023-10-19T00:10:11;4.60;;;0.57;;
52948;SDS011;38812;50.942;3.644;2023-10-19T00:12:40;4.70;;;0.57;;
52948;SDS011;38812;50.942;3.644;2023-10-19T00:15:05;1.27;;;0.68;;
52948;SDS011;38812;50.942;3.644;2023-10-19T00:17:31;5.68;;;0.80;;
52948;SDS011;38812;50.942;3.644;2023-10-19T00:19:57;7.65;;;1.20;;
52948;SDS011;38812;50.942;3.644;2023-10-19T00:22:32;5.38;;;0.82;;
52948;SDS011;38812;50.942;3.644;2023-10-19T00:25:01;3.75;;;0.70;;
52948;SDS011;38812;50.942;3.644;2023-10-19T00:27:28;3.13;;;0.65;;
52948;SDS011;38812;50.942;3.644;2023-10-19T00:29:53;3.95;;;0.77;;
52948;SDS011;38812;50.942;3.644;2023-10-19T00:32:27;3.35;;;0.52;;
52948;SDS011;38812;50.942;3.644;2023-10-19T00:34:54;2.65;;;0.80;;
52948;SDS011;38812;50.942;3.644;2023-10-19T00:37:20;2.67;;;1.00;;
52948;SDS011;38812;50.942;3.644;2023-10-19T00:39:57;9.18;;;0.93;;
52948;SDS011;38812;50.942;3.644;2023-10-19T00:42:39;2.83;;;0.85;;
52948;SDS011;38812;50.942;3.644;2023-10-19T00:45:10;3.75;;;0.75;;
52948;SDS011;38812;50.942;3.644;2023-10-19T00:47:38;4.90;;;0.73;;
52948;SDS011;38812;50.942;3.644;2023-10-19T00:50:07;4.93;;;1.02;;
52948;SDS011;38812;50.942;3.644;2023-10-19T00:52:42;3.47;;;1.10;;
52948;SDS011;38812;50.942;3.644;2023-10-19T00:55:11;4.32;;;0.73;;
52948;SDS011;38812;50.942;3.644;2023-10-19T00:57:39;5.68;;;0.77;;
52948;SDS011;38812;50.942;3.644;2023-10-19T01:00:08;2.90;;;0.85;;
52948;SDS011;38812;50.942;3.644;2023-10-19T01:02:38;2.70;;;0.75;;
52948;SDS011;38812;50.942;3.644;2023-10-19T01:05:10;3.38;;;0.68;;
52948;SDS011;38812;50.942;3.644;2023-10-19T01:07:39;2.58;;;0.77;;
52948;SDS011;38812;50.942;3.644;2023-10-19T01:10:09;3.90;;;1.30;;
52948;SDS011;38812;50.942;3.644;2023-10-19T01:12:45;3.38;;;1.33;;
52948;SDS011;38812;50.942;3.644;2023-10-19T01:15:11;4.38;;;0.90;;
52948;SDS011;38812;50.942;3.644;2023-10-19T01:17:41;6.88;;;1.17;;
52948;SDS011;38812;50.942;3.644;2023-10-19T01:20:09;12.77;;;2.05;;
52948;SDS011;38812;50.942;3.644;2023-10-19T01:23:03;7.18;;;0.70;;
52948;SDS011;38812;50.942;3.644;2023-10-19T01:25:51;7.38;;;0.88;;
52948;SDS011;38812;50.942;3.644;2023-10-19T01:28:24;5.10;;;0.82;;
52948;SDS011;38812;50.942;3.644;2023-10-19T01:31:06;5.47;;;1.05;;
52948;SDS011;38812;50.942;3.644;2023-10-19T01:33:45;3.60;;;0.60;;
52948;SDS011;38812;50.942;3.644;2023-10-19T01:36:12;3.33;;;0.85;;
52948;SDS011;38812;50.942;3.644;2023-10-19T01:38:46;2.67;;;0.57;;
52948;SDS011;38812;50.942;3.644;2023-10-19T01:41:13;3.55;;;0.90;;
52948;SDS011;38812;50.942;3.644;2023-10-19T01:43:42;3.53;;;0.82;;
52948;SDS011;38812;50.942;3.644;2023-10-19T01:46:09;6.20;;;0.80;;
52948;SDS011;38812;50.942;3.644;2023-10-19T01:48:41;4.22;;;0.73;;
52948;SDS011;38812;50.942;3.644;2023-10-19T01:51:09;4.95;;;0.88;;
52948;SDS011;38812;50.942;3.644;2023-10-19T01:53:36;5.28;;;1.17;;
52948;SDS011;38812;50.942;3.644;2023-10-19T01:56:12;3.40;;;0.85;;
52948;SDS011;38812;50.942;3.644;2023-10-19T01:58:42;6.93;;;1.20;;
52948;SDS011;38812;50.942;3.644;2023-10-19T02:01:11;5.60;;;0.88;;
52948;SDS011;38812;50.942;3.644;2023-10-19T02:03:37;3.65;;;0.80;;
52948;SDS011;38812;50.942;3.644;2023-10-19T02:06:06;3.30;;;0.80;;
52948;SDS011;38812;50.942;3.644;2023-10-19T02:08:42;5.00;;;0.90;;
52948;SDS011;38812;50.942;3.644;2023-10-19T02:11:24;7.45;;;1.58;;
52948;SDS011;38812;50.942;3.644;2023-10-19T02:13:52;4.15;;;0.88;;
52948;SDS011;38812;50.942;3.644;2023-10-19T02:16:19;8.05;;;0.95;;
52948;SDS011;38812;50.942;3.644;2023-10-19T02:18:47;3.40;;;0.90;;
52948;SDS011;38812;50.942;3.644;2023-10-19T02:21:13;6.45;;;1.00;;
52948;SDS011;38812;50.942;3.644;2023-10-19T02:23:39;6.22;;;1.08;;
52948;SDS011;38812;50.942;3.644;2023-10-19T02:26:06;5.10;;;0.93;;
52948;SDS011;38812;50.942;3.644;2023-10-19T02:28:38;3.53;;;0.80;;
52948;SDS011;38812;50.942;3.644;2023-10-19T02:31:05;9.40;;;1.08;;
52948;SDS011;38812;50.942;3.644;2023-10-19T02:33:40;2.95;;;1.00;;
52948;SDS011;38812;50.942;3.644;2023-10-19T02:36:13;5.17;;;1.37;;
52948;SDS011;38812;50.942;3.644;2023-10-19T02:38:40;11.10;;;1.58;;
52948;SDS011;38812;50.942;3.644;2023-10-19T02:41:09;9.93;;;1.70;;
52948;SDS011;38812;50.942;3.644;2023-10-19T02:43:35;9.63;;;1.85;;
52948;SDS011;38812;50.942;3.644;2023-10-19T02:46:01;7.82;;;1.10;;
52948;SDS011;38812;50.942;3.644;2023-10-19T02:48:28;4.60;;;1.05;;
52948;SDS011;38812;50.942;3.644;2023-10-19T02:50:53;13.82;;;2.13;;
52948;SDS011;38812;50.942;3.644;2023-10-19T02:53:19;5.72;;;0.88;;
52948;SDS011;38812;50.942;3.644;2023-10-19T02:55:44;9.18;;;1.60;;
52948;SDS011;38812;50.942;3.644;2023-10-19T02:58:10;7.10;;;1.17;;
52948;SDS011;38812;50.942;3.644;2023-10-19T03:00:39;6.03;;;1.00;;
52948;SDS011;38812;50.942;3.644;2023-10-19T03:03:05;5.65;;;1.20;;
52948;SDS011;38812;50.942;3.644;2023-10-19T03:05:31;7.10;;;1.08;;
52948;SDS011;38812;50.942;3.644;2023-10-19T03:07:59;10.52;;;2.65;;
52948;SDS011;38812;50.942;3.644;2023-10-19T03:10:30;8.90;;;1.40;;
52948;SDS011;38812;50.942;3.644;2023-10-19T03:13:07;4.95;;;1.10;;
52948;SDS011;38812;50.942;3.644;2023-10-19T03:15:33;9.93;;;1.52;;
52948;SDS011;38812;50.942;3.644;2023-10-19T03:17:58;4.15;;;1.20;;
52948;SDS011;38812;50.942;3.644;2023-10-19T03:20:25;4.93;;;1.50;;
52948;SDS011;38812;50.942;3.644;2023-10-19T03:22:52;8.93;;;1.02;;
52948;SDS011;38812;50.942;3.644;2023-10-19T03:25:17;12.48;;;1.92;;
52948;SDS011;38812;50.942;3.644;2023-10-19T03:28:01;10.98;;;2.40;;
52948;SDS011;38812;50.942;3.644;2023-10-19T03:30:47;8.40;;;1.02;;
52948;SDS011;38812;50.942;3.644;2023-10-19T03:33:12;4.35;;;0.77;;
52948;SDS011;38812;50.942;3.644;2023-10-19T03:35:38;7.93;;;1.20;;
52948;SDS011;38812;50.942;3.644;2023-10-19T03:38:06;12.07;;;3.58;;
52948;SDS011;38812;50.942;3.644;2023-10-19T03:40:43;7.28;;;1.58;;
52948;SDS011;38812;50.942;3.644;2023-10-19T03:43:20;8.25;;;1.48;;
52948;SDS011;38812;50.942;3.644;2023-10-19T03:45:47;16.77;;;1.80;;
52948;SDS011;38812;50.942;3.644;2023-10-19T03:48:18;7.32;;;1.30;;
52948;SDS011;38812;50.942;3.644;2023-10-19T03:50:59;11.15;;;1.65;;
52948;SDS011;38812;50.942;3.644;2023-10-19T03:53:27;8.77;;;1.05;;
52948;SDS011;38812;50.942;3.644;2023-10-19T03:55:52;8.48;;;2.88;;
52948;SDS011;38812;50.942;3.644;2023-10-19T03:58:19;10.93;;;2.35;;
52948;SDS011;38812;50.942;3.644;2023-10-19T04:00:46;9.93;;;1.30;;
52948;SDS011;38812;50.942;3.644;2023-10-19T04:03:14;10.18;;;1.42;;
52948;SDS011;38812;50.942;3.644;2023-10-19T04:05:40;6.05;;;1.40;;
52948;SDS011;38812;50.942;3.644;2023-10-19T04:08:06;8.23;;;1.60;;
52948;SDS011;38812;50.942;3.644;2023-10-19T04:10:46;16.80;;;2.53;;
52948;SDS011;38812;50.942;3.644;2023-10-19T04:13:31;10.02;;;2.55;;
52948;SDS011;38812;50.942;3.644;2023-10-19T04:15:56;12.95;;;1.83;;
52948;SDS011;38812;50.942;3.644;2023-10-19T04:18:22;7.18;;;1.15;;
52948;SDS011;38812;50.942;3.644;2023-10-19T04:20:50;9.85;;;1.73;;
52948;SDS011;38812;50.942;3.644;2023-10-19T04:23:16;17.38;;;1.77;;
52948;SDS011;38812;50.942;3.644;2023-10-19T04:25:41;9.88;;;1.08;;
52948;SDS011;38812;50.942;3.644;2023-10-19T04:28:07;9.60;;;2.65;;
52948;SDS011;38812;50.942;3.644;2023-10-19T04:30:34;12.82;;;2.03;;
52948;SDS011;38812;50.942;3.644;2023-10-19T04:33:02;8.98;;;1.52;;
52948;SDS011;38812;50.942;3.644;2023-10-19T04:35:27;10.18;;;1.35;;
52948;SDS011;38812;50.942;3.644;2023-10-19T04:37:57;10.60;;;2.50;;
52948;SDS011;38812;50.942;3.644;2023-10-19T04:40:23;7.25;;;1.98;;
52948;SDS011;38812;50.942;3.644;2023-10-19T04:42:51;9.38;;;1.92;;
52948;SDS011;38812;50.942;3.644;2023-10-19T04:45:18;8.65;;;1.50;;
52948;SDS011;38812;50.942;3.644;2023-10-19T04:47:44;7.20;;;1.25;;
52948;SDS011;38812;50.942;3.644;2023-10-19T04:50:10;8.50;;;2.22;;
52948;SDS011;38812;50.942;3.644;2023-10-19T04:52:36;10.02;;;2.25;;
52948;SDS011;38812;50.942;3.644;2023-10-19T04:55:02;8.05;;;2.58;;
52948;SDS011;38812;50.942;3.644;2023-10-19T04:57:27;15.88;;;2.22;;
52948;SDS011;38812;50.942;3.644;2023-10-19T04:59:53;4.00;;;1.13;;
52948;SDS011;38812;50.942;3.644;2023-10-19T05:02:19;12.82;;;2.05;;
52948;SDS011;38812;50.942;3.644;2023-10-19T05:04:44;10.60;;;1.90;;
52948;SDS011;38812;50.942;3.644;2023-10-19T05:07:10;17.20;;;2.97;;
52948;SDS011;38812;50.942;3.644;2023-10-19T05:09:41;13.82;;;1.90;;
52948;SDS011;38812;50.942;3.644;2023-10-19T05:12:08;7.22;;;2.40;;
52948;SDS011;38812;50.942;3.644;2023-10-19T05:14:38;11.05;;;1.73;;
52948;SDS011;38812;50.942;3.644;2023-10-19T05:17:04;14.85;;;1.77;;
52948;SDS011;38812;50.942;3.644;2023-10-19T05:19:33;17.35;;;2.45;;
52948;SDS011;38812;50.942;3.644;2023-10-19T05:22:00;12.30;;;2.78;;
52948;SDS011;38812;50.942;3.644;2023-10-19T05:24:27;8.10;;;1.52;;
52948;SDS011;38812;50.942;3.644;2023-10-19T05:26:53;9.30;;;1.67;;
52948;SDS011;38812;50.942;3.644;2023-10-19T05:29:19;18.38;;;3.83;;
52948;SDS011;38812;50.942;3.644;2023-10-19T05:31:45;8.43;;;2.83;;
52948;SDS011;38812;50.942;3.644;2023-10-19T05:34:11;6.68;;;1.50;;
52948;SDS011;38812;50.942;3.644;2023-10-19T05:36:36;13.63;;;2.92;;
52948;SDS011;38812;50.942;3.644;2023-10-19T05:39:02;10.70;;;2.05;;
52948;SDS011;38812;50.942;3.644;2023-10-19T05:41:29;13.95;;;1.73;;
52948;SDS011;38812;50.942;3.644;2023-10-19T05:43:56;14.75;;;2.25;;
52948;SDS011;38812;50.942;3.644;2023-10-19T05:46:22;11.80;;;1.90;;
52948;SDS011;38812;50.942;3.644;2023-10-19T05:48:50;16.63;;;2.10;;
52948;SDS011;38812;50.942;3.644;2023-10-19T05:51:15;14.07;;;3.08;;
52948;SDS011;38812;50.942;3.644;2023-10-19T05:53:42;6.93;;;1.80;;
52948;SDS011;38812;50.942;3.644;2023-10-19T05:56:08;11.60;;;2.55;;
52948;SDS011;38812;50.942;3.644;2023-10-19T05:58:34;12.38;;;1.70;;
52948;SDS011;38812;50.942;3.644;2023-10-19T06:00:59;10.65;;;1.55;;
52948;SDS011;38812;50.942;3.644;2023-10-19T06:03:25;12.52;;;1.67;;
52948;SDS011;38812;50.942;3.644;2023-10-19T06:05:50;18.13;;;2.30;;
52948;SDS011;38812;50.942;3.644;2023-10-19T06:08:15;6.30;;;1.60;;
52948;SDS011;38812;50.942;3.644;2023-10-19T06:10:41;16.80;;;3.40;;
52948;SDS011;38812;50.942;3.644;2023-10-19T06:13:07;8.32;;;1.52;;
52948;SDS011;38812;50.942;3.644;2023-10-19T06:15:35;11.40;;;2.45;;
52948;SDS011;38812;50.942;3.644;2023-10-19T06:18:00;10.18;;;2.13;;
52948;SDS011;38812;50.942;3.644;2023-10-19T06:20:26;14.75;;;2.65;;
52948;SDS011;38812;50.942;3.644;2023-10-19T06:22:55;8.48;;;2.00;;
52948;SDS011;38812;50.942;3.644;2023-10-19T06:25:29;11.95;;;1.88;;
52948;SDS011;38812;50.942;3.644;2023-10-19T06:27:55;11.18;;;1.48;;
52948;SDS011;38812;50.942;3.644;2023-10-19T06:30:24;16.05;;;2.08;;
52948;SDS011;38812;50.942;3.644;2023-10-19T06:32:52;11.77;;;2.25;;
52948;SDS011;38812;50.942;3.644;2023-10-19T06:35:19;8.55;;;1.50;;
52948;SDS011;38812;50.942;3.644;2023-10-19T06:37:46;16.88;;;2.90;;
52948;SDS011;38812;50.942;3.644;2023-10-19T06:40:12;13.32;;;2.00;;
52948;SDS011;38812;50.942;3.644;2023-10-19T06:42:42;7.05;;;1.65;;
52948;SDS011;38812;50.942;3.644;2023-10-19T06:45:12;13.68;;;3.22;;
52948;SDS011;38812;50.942;3.644;2023-10-19T06:47:44;12.18;;;2.97;;
52948;SDS011;38812;50.942;3.644;2023-10-19T06:50:14;18.13;;;2.55;;
52948;SDS011;38812;50.942;3.644;2023-10-19T06:52:45;10.25;;;2.05;;
52948;SDS011;38812;50.942;3.644;2023-10-19T06:55:12;15.00;;;2.50;;
52948;SDS011;38812;50.942;3.644;2023-10-19T06:57:42;12.57;;;1.98;;
52948;SDS011;38812;50.942;3.644;2023-10-19T07:00:17;14.32;;;2.58;;
52948;SDS011;38812;50.942;3.644;2023-10-19T07:02:47;13.20;;;2.20;;
52948;SDS011;38812;50.942;3.644;2023-10-19T07:05:15;14.68;;;2.75;;
52948;SDS011;38812;50.942;3.644;2023-10-19T07:07:49;10.27;;;1.73;;
52948;SDS011;38812;50.942;3.644;2023-10-19T07:10:21;11.40;;;1.77;;
52948;SDS011;38812;50.942;3.644;2023-10-19T07:12:48;18.58;;;2.22;;
52948;SDS011;38812;50.942;3.644;2023-10-19T07:15:16;22.42;;;2.85;;
52948;SDS011;38812;50.942;3.644;2023-10-19T07:17:45;11.20;;;2.63;;
52948;SDS011;38812;50.942;3.644;2023-10-19T07:20:12;22.73;;;4.32;;
52948;SDS011;38812;50.942;3.644;2023-10-19T07:22:58;13.90;;;2.42;;
52948;SDS011;38812;50.942;3.644;2023-10-19T07:25:43;10.95;;;2.35;;
52948;SDS011;38812;50.942;3.644;2023-10-19T07:28:09;20.88;;;2.65;;
52948;SDS011;38812;50.942;3.644;2023-10-19T07:30:37;13.45;;;2.50;;
52948;SDS011;38812;50.942;3.644;2023-10-19T07:33:02;9.60;;;1.88;;
52948;SDS011;38812;50.942;3.644;2023-10-19T07:35:29;10.68;;;2.10;;
52948;SDS011;38812;50.942;3.644;2023-10-19T07:37:59;12.38;;;2.03;;
52948;SDS011;38812;50.942;3.644;2023-10-19T07:40:26;13.13;;;2.05;;
52948;SDS011;38812;50.942;3.644;2023-10-19T07:42:52;21.15;;;3.42;;
52948;SDS011;38812;50.942;3.644;2023-10-19T07:45:19;15.10;;;2.58;;
52948;SDS011;38812;50.942;3.644;2023-10-19T07:47:44;11.75;;;2.10;;
52948;SDS011;38812;50.942;3.644;2023-10-19T07:50:13;15.93;;;2.35;;
52948;SDS011;38812;50.942;3.644;2023-10-19T07:52:42;11.25;;;2.40;;
52948;SDS011;38812;50.942;3.644;2023-10-19T07:55:14;14.57;;;2.95;;
52948;SDS011;38812;50.942;3.644;2023-10-19T07:57:41;12.50;;;1.77;;
52948;SDS011;38812;50.942;3.644;2023-10-19T08:00:07;14.88;;;3.28;;
52948;SDS011;38812;50.942;3.644;2023-10-19T08:02:35;10.18;;;3.58;;
52948;SDS011;38812;50.942;3.644;2023-10-19T08:05:03;12.30;;;2.40;;
52948;SDS011;38812;50.942;3.644;2023-10-19T08:07:29;14.55;;;2.65;;
52948;SDS011;38812;50.942;3.644;2023-10-19T08:09:55;12.75;;;2.22;;
52948;SDS011;38812;50.942;3.644;2023-10-19T08:12:24;15.25;;;2.75;;
52948;SDS011;38812;50.942;3.644;2023-10-19T08:14:51;9.93;;;1.75;;
52948;SDS011;38812;50.942;3.644;2023-10-19T08:17:17;10.82;;;2.10;;
52948;SDS011;38812;50.942;3.644;2023-10-19T08:19:43;14.23;;;1.98;;
52948;SDS011;38812;50.942;3.644;2023-10-19T08:22:08;9.30;;;2.38;;
52948;SDS011;38812;50.942;3.644;2023-10-19T08:24:34;13.93;;;2.67;;
52948;SDS011;38812;50.942;3.644;2023-10-19T08:27:03;19.27;;;3.08;;
52948;SDS011;38812;50.942;3.644;2023-10-19T08:29:31;23.52;;;3.58;;
52948;SDS011;38812;50.942;3.644;2023-10-19T08:31:57;11.30;;;2.30;;
52948;SDS011;38812;50.942;3.644;2023-10-19T08:34:22;14.10;;;2.63;;
52948;SDS011;38812;50.942;3.644;2023-10-19T08:36:49;16.27;;;2.67;;
52948;SDS011;38812;50.942;3.644;2023-10-19T08:39:15;21.33;;;3.75;;
52948;SDS011;38812;50.942;3.644;2023-10-19T08:41:40;15.48;;;3.13;;
52948;SDS011;38812;50.942;3.644;2023-10-19T08:44:07;13.90;;;2.33;;
52948;SDS011;38812;50.942;3.644;2023-10-19T08:46:38;14.50;;;2.75;;
52948;SDS011;38812;50.942;3.644;2023-10-19T08:49:08;13.48;;;2.88;;
52948;SDS011;38812;50.942;3.644;2023-10-19T08:51:36;16.92;;;2.50;;
52948;SDS011;38812;50.942;3.644;2023-10-19T08:54:02;11.60;;;2.03;;
52948;SDS011;38812;50.942;3.644;2023-10-19T08:56:30;17.42;;;2.65;;
52948;SDS011;38812;50.942;3.644;2023-10-19T08:58:58;17.13;;;3.15;;
52948;SDS011;38812;50.942;3.644;2023-10-19T09:01:25;12.82;;;1.83;;
52948;SDS011;38812;50.942;3.644;2023-10-19T09:03:52;14.20;;;2.85;;
52948;SDS011;38812;50.942;3.644;2023-10-19T09:06:20;18.05;;;4.18;;
52948;SDS011;38812;50.942;3.644;2023-10-19T09:08:46;19.17;;;3.90;;
52948;SDS011;38812;50.942;3.644;2023-10-19T09:11:13;17.38;;;2.42;;
52948;SDS011;38812;50.942;3.644;2023-10-19T09:13:45;9.38;;;2.70;;
52948;SDS011;38812;50.942;3.644;2023-10-19T09:16:18;13.68;;;2.70;;
52948;SDS011;38812;50.942;3.644;2023-10-19T09:18:45;11.70;;;2.30;;
52948;SDS011;38812;50.942;3.644;2023-10-19T09:21:16;25.05;;;3.83;;
52948;SDS011;38812;50.942;3.644;2023-10-19T09:23:51;23.75;;;5.20;;
52948;SDS011;38812;50.942;3.644;2023-10-19T09:26:18;10.60;;;2.72;;
52948;SDS011;38812;50.942;3.644;2023-10-19T09:28:48;15.35;;;2.28;;
52948;SDS011;38812;50.942;3.644;2023-10-19T09:31:14;13.15;;;2.88;;
52948;SDS011;38812;50.942;3.644;2023-10-19T09:33:41;11.48;;;2.28;;
52948;SDS011;38812;50.942;3.644;2023-10-19T09:36:08;18.98;;;2.90;;
52948;SDS011;38812;50.942;3.644;2023-10-19T09:38:50;23.55;;;3.17;;
52948;SDS011;38812;50.942;3.644;2023-10-19T09:41:25;18.63;;;3.53;;
52948;SDS011;38812;50.942;3.644;2023-10-19T09:43:54;13.48;;;3.63;;
52948;SDS011;38812;50.942;3.644;2023-10-19T09:46:32;18.85;;;2.67;;
52948;SDS011;38812;50.942;3.644;2023-10-19T09:48:58;20.00;;;2.55;;
52948;SDS011;38812;50.942;3.644;2023-10-19T09:51:24;13.02;;;2.53;;
52948;SDS011;38812;50.942;3.644;2023-10-19T09:56:24;12.45;;;2.78;;
52948;SDS011;38812;50.942;3.644;2023-10-19T09:58:54;15.97;;;2.30;;
52948;SDS011;38812;50.942;3.644;2023-10-19T10:01:24;19.92;;;2.70;;
52948;SDS011;38812;50.942;3.644;2023-10-19T10:03:51;9.45;;;2.58;;
52948;SDS011;38812;50.942;3.644;2023-10-19T10:06:26;13.23;;;2.28;;
52948;SDS011;38812;50.942;3.644;2023-10-19T10:08:54;12.75;;;2.08;;
52948;SDS011;38812;50.942;3.644;2023-10-19T10:11:22;17.15;;;1.92;;
52948;SDS011;38812;50.942;3.644;2023-10-19T10:13:49;10.75;;;1.67;;
52948;SDS011;38812;50.942;3.644;2023-10-19T10:16:16;13.63;;;2.10;;
52948;SDS011;38812;50.942;3.644;2023-10-19T10:18:43;15.82;;;3.33;;
52948;SDS011;38812;50.942;3.644;2023-10-19T10:21:19;16.52;;;3.60;;
52948;SDS011;38812;50.942;3.644;2023-10-19T10:23:49;12.55;;;2.83;;
52948;SDS011;38812;50.942;3.644;2023-10-19T10:26:18;17.00;;;3.25;;
52948;SDS011;38812;50.942;3.644;2023-10-19T10:28:48;14.30;;;2.47;;
52948;SDS011;38812;50.942;3.644;2023-10-19T10:31:33;11.40;;;1.95;;
52948;SDS011;38812;50.942;3.644;2023-10-19T10:34:01;9.25;;;2.75;;
52948;SDS011;38812;50.942;3.644;2023-10-19T10:36:27;10.55;;;2.45;;
52948;SDS011;38812;50.942;3.644;2023-10-19T10:39:22;10.15;;;1.95;;
52948;SDS011;38812;50.942;3.644;2023-10-19T10:41:55;7.97;;;2.40;;
52948;SDS011;38812;50.942;3.644;2023-10-19T10:44:36;13.80;;;2.35;;
52948;SDS011;38812;50.942;3.644;2023-10-19T10:47:06;20.27;;;2.97;;
52948;SDS011;38812;50.942;3.644;2023-10-19T10:49:59;14.68;;;2.90;;
52948;SDS011;38812;50.942;3.644;2023-10-19T10:52:29;20.50;;;3.28;;
52948;SDS011;38812;50.942;3.644;2023-10-19T10:54:57;17.02;;;2.42;;
52948;SDS011;38812;50.942;3.644;2023-10-19T10:57:39;11.30;;;2.17;;
52948;SDS011;38812;50.942;3.644;2023-10-19T11:00:09;16.70;;;2.90;;
52948;SDS011;38812;50.942;3.644;2023-10-19T11:02:40;12.25;;;2.67;;
52948;SDS011;38812;50.942;3.644;2023-10-19T11:05:14;11.00;;;1.95;;
52948;SDS011;38812;50.942;3.644;2023-10-19T11:07:41;12.43;;;3.40;;
52948;SDS011;38812;50.942;3.644;2023-10-19T11:10:30;14.70;;;3.08;;
52948;SDS011;38812;50.942;3.644;2023-10-19T11:13:09;18.00;;;2.78;;
52948;SDS011;38812;50.942;3.644;2023-10-19T11:15:36;9.80;;;2.38;;
52948;SDS011;38812;50.942;3.644;2023-10-19T11:18:03;10.88;;;2.08;;
52948;SDS011;38812;50.942;3.644;2023-10-19T11:20:29;21.55;;;2.53;;
52948;SDS011;38812;50.942;3.644;2023-10-19T11:22:55;13.43;;;2.08;;
52948;SDS011;38812;50.942;3.644;2023-10-19T11:25:22;14.30;;;2.33;;
52948;SDS011;38812;50.942;3.644;2023-10-19T11:27:49;16.92;;;2.67;;
52948;SDS011;38812;50.942;3.644;2023-10-19T11:30:28;10.77;;;2.78;;
52948;SDS011;38812;50.942;3.644;2023-10-19T11:32:56;9.38;;;2.20;;
52948;SDS011;38812;50.942;3.644;2023-10-19T11:35:26;14.23;;;3.63;;
52948;SDS011;38812;50.942;3.644;2023-10-19T11:37:56;10.77;;;4.45;;
52948;SDS011;38812;50.942;3.644;2023-10-19T11:40:27;9.82;;;2.53;;
52948;SDS011;38812;50.942;3.644;2023-10-19T11:42:53;7.93;;;2.00;;
52948;SDS011;38812;50.942;3.644;2023-10-19T11:45:21;12.18;;;2.13;;
52948;SDS011;38812;50.942;3.644;2023-10-19T11:47:50;10.25;;;1.70;;
52948;SDS011;38812;50.942;3.644;2023-10-19T11:50:16;11.68;;;2.55;;
52948;SDS011;38812;50.942;3.644;2023-10-19T11:52:43;12.38;;;2.42;;
52948;SDS011;38812;50.942;3.644;2023-10-19T11:55:10;7.90;;;1.40;;
52948;SDS011;38812;50.942;3.644;2023-10-19T11:57:38;12.88;;;1.90;;
52948;SDS011;38812;50.942;3.644;2023-10-19T12:00:05;6.90;;;1.98;;
52948;SDS011;38812;50.942;3.644;2023-10-19T12:02:34;7.55;;;1.95;;
52948;SDS011;38812;50.942;3.644;2023-10-19T12:05:03;11.15;;;2.10;;
52948;SDS011;38812;50.942;3.644;2023-10-19T12:07:29;11.18;;;1.98;;
52948;SDS011;38812;50.942;3.644;2023-10-19T12:09:55;6.78;;;1.92;;
52948;SDS011;38812;50.942;3.644;2023-10-19T12:12:21;2.03;;;0.97;;
52948;SDS011;38812;50.942;3.644;2023-10-19T12:14:46;7.65;;;1.50;;
52948;SDS011;38812;50.942;3.644;2023-10-19T12:17:12;4.18;;;1.70;;
52948;SDS011;38812;50.942;3.644;2023-10-19T12:19:37;6.63;;;2.17;;
52948;SDS011;38812;50.942;3.644;2023-10-19T12:22:03;9.13;;;1.75;;
52948;SDS011;38812;50.942;3.644;2023-10-19T12:24:28;8.48;;;1.50;;
52948;SDS011;38812;50.942;3.644;2023-10-19T12:26:54;6.18;;;1.60;;
52948;SDS011;38812;50.942;3.644;2023-10-19T12:29:20;4.03;;;1.50;;
52948;SDS011;38812;50.942;3.644;2023-10-19T12:31:46;8.57;;;1.90;;
52948;SDS011;38812;50.942;3.644;2023-10-19T12:34:12;6.15;;;1.23;;
52948;SDS011;38812;50.942;3.644;2023-10-19T12:36:38;6.85;;;1.75;;
52948;SDS011;38812;50.942;3.644;2023-10-19T12:39:04;10.85;;;2.03;;
52948;SDS011;38812;50.942;3.644;2023-10-19T12:41:30;12.10;;;3.22;;
52948;SDS011;38812;50.942;3.644;2023-10-19T12:43:56;7.57;;;1.90;;
52948;SDS011;38812;50.942;3.644;2023-10-19T12:46:25;5.75;;;1.40;;
52948;SDS011;38812;50.942;3.644;2023-10-19T12:48:54;7.55;;;1.20;;
52948;SDS011;38812;50.942;3.644;2023-10-19T12:51:23;6.72;;;2.00;;
52948;SDS011;38812;50.942;3.644;2023-10-19T12:53:53;7.97;;;1.13;;
52948;SDS011;38812;50.942;3.644;2023-10-19T12:56:19;6.85;;;1.25;;
52948;SDS011;38812;50.942;3.644;2023-10-19T12:58:46;4.30;;;1.17;;
52948;SDS011;38812;50.942;3.644;2023-10-19T13:01:13;4.30;;;1.20;;
52948;SDS011;38812;50.942;3.644;2023-10-19T13:03:43;3.75;;;1.00;;
52948;SDS011;38812;50.942;3.644;2023-10-19T13:06:13;4.13;;;1.75;;
52948;SDS011;38812;50.942;3.644;2023-10-19T13:08:39;11.85;;;4.60;;
52948;SDS011;38812;50.942;3.644;2023-10-19T13:11:06;7.50;;;1.67;;
52948;SDS011;38812;50.942;3.644;2023-10-19T13:13:32;6.30;;;1.45;;
52948;SDS011;38812;50.942;3.644;2023-10-19T13:16:01;11.63;;;1.65;;
52948;SDS011;38812;50.942;3.644;2023-10-19T13:18:30;3.63;;;0.98;;
52948;SDS011;38812;50.942;3.644;2023-10-19T13:20:59;5.80;;;1.00;;
52948;SDS011;38812;50.942;3.644;2023-10-19T13:23:29;3.80;;;1.10;;
52948;SDS011;38812;50.942;3.644;2023-10-19T13:25:57;7.45;;;1.20;;
52948;SDS011;38812;50.942;3.644;2023-10-19T13:28:34;5.93;;;1.10;;
52948;SDS011;38812;50.942;3.644;2023-10-19T13:31:02;7.57;;;2.90;;
52948;SDS011;38812;50.942;3.644;2023-10-19T13:33:28;9.73;;;1.15;;
52948;SDS011;38812;50.942;3.644;2023-10-19T13:35:54;11.13;;;2.08;;
52948;SDS011;38812;50.942;3.644;2023-10-19T13:38:19;2.90;;;1.38;;
52948;SDS011;38812;50.942;3.644;2023-10-19T13:40:45;6.70;;;1.40;;
52948;SDS011;38812;50.942;3.644;2023-10-19T13:43:11;3.10;;;1.30;;
52948;SDS011;38812;50.942;3.644;2023-10-19T13:45:41;2.78;;;0.93;;
52948;SDS011;38812;50.942;3.644;2023-10-19T13:48:11;3.60;;;1.08;;
52948;SDS011;38812;50.942;3.644;2023-10-19T13:50:41;6.57;;;1.23;;
52948;SDS011;38812;50.942;3.644;2023-10-19T13:53:13;3.30;;;1.52;;
52948;SDS011;38812;50.942;3.644;2023-10-19T13:55:40;5.43;;;1.38;;
52948;SDS011;38812;50.942;3.644;2023-10-19T13:58:05;3.58;;;1.05;;
52948;SDS011;38812;50.942;3.644;2023-10-19T14:00:33;6.00;;;1.52;;
52948;SDS011;38812;50.942;3.644;2023-10-19T14:02:59;10.45;;;1.48;;
52948;SDS011;38812;50.942;3.644;2023-10-19T14:05:26;7.43;;;1.67;;
52948;SDS011;38812;50.942;3.644;2023-10-19T14:07:55;2.58;;;1.80;;
52948;SDS011;38812;50.942;3.644;2023-10-19T14:10:21;3.78;;;1.50;;
52948;SDS011;38812;50.942;3.644;2023-10-19T14:12:47;7.10;;;2.10;;
52948;SDS011;38812;50.942;3.644;2023-10-19T14:15:17;10.30;;;1.85;;
52948;SDS011;38812;50.942;3.644;2023-10-19T14:17:44;6.93;;;1.63;;
52948;SDS011;38812;50.942;3.644;2023-10-19T14:20:11;9.00;;;1.10;;
52948;SDS011;38812;50.942;3.644;2023-10-19T14:22:50;8.82;;;2.65;;
52948;SDS011;38812;50.942;3.644;2023-10-19T14:25:19;10.82;;;2.10;;
52948;SDS011;38812;50.942;3.644;2023-10-19T14:27:47;4.35;;;1.30;;
52948;SDS011;38812;50.942;3.644;2023-10-19T14:30:15;4.57;;;1.30;;
52948;SDS011;38812;50.942;3.644;2023-10-19T14:32:45;9.23;;;1.65;;
52948;SDS011;38812;50.942;3.644;2023-10-19T14:35:15;2.80;;;1.05;;
52948;SDS011;38812;50.942;3.644;2023-10-19T14:37:45;3.55;;;1.17;;
52948;SDS011;38812;50.942;3.644;2023-10-19T14:40:13;7.90;;;1.20;;
52948;SDS011;38812;50.942;3.644;2023-10-19T14:42:48;6.25;;;1.45;;
52948;SDS011;38812;50.942;3.644;2023-10-19T14:45:16;3.28;;;1.42;;
52948;SDS011;38812;50.942;3.644;2023-10-19T14:47:51;2.85;;;1.20;;
52948;SDS011;38812;50.942;3.644;2023-10-19T14:50:19;3.35;;;1.00;;
52948;SDS011;38812;50.942;3.644;2023-10-19T14:52:46;2.78;;;1.10;;